Friday, April 20, 2018, 6:21 AM EDT
Back to Local

KIAG, Niagara Falls International Airport

Location: Niagara Falls, NY, United States Lat: 43.117
Local Time: 6:21 AM EDT (10:21 GMT) Lon: -78.933
Time Zone: US/Eastern Elev: 583 ft

Show me the last for .
Show Decoded

2018-04-20 05:53 METAR KIAG 200953Z AUTO 32006KT CLR M01/M07 A3027 RMK AO2 SLP265 T10061067 $ =
2018-04-20 04:53 METAR KIAG 200853Z AUTO 33008KT CLR 00/M07 A3025 RMK AO2 SLP257 T00001072 51016
                 $ =
2018-04-20 03:53 METAR KIAG 200753Z AUTO 34007KT CLR 00/M07 A3024 RMK AO2 SLP253 T00001072 $ =
2018-04-20 02:53 METAR KIAG 200653Z AUTO 33011KT SCT041 01/M06 A3022 RMK AO2 SLP246 T00061061 $ =
2018-04-20 01:53 METAR KIAG 200553Z AUTO 35010KT BKN041 02/M06 A3020 RMK AO2 SLP241 T00171061
                 10028 20017 53008 $ =
2018-04-20 00:53 METAR KIAG 200453Z AUTO 34008KT SCT027 BKN033 OVC044 02/M04 A3019 RMK AO2 SLP236
                 T00221039 400560011 $ =
2018-04-20 00:35 METAR KIAG 200435Z AUTO 33007KT BKN028 BKN033 OVC044 02/M04 A3019 RMK AO2
                 T00221039 $ =
2018-04-19 23:53 METAR KIAG 200353Z AUTO 33007KT BKN036 OVC043 02/M04 A3018 RMK AO2 SLP233
                 T00221044 $ =
2018-04-19 22:53 METAR KIAG 200253Z 34012KT 10SM OVC047 03/M06 A3018 RMK AO2 SLP232 T00281056
                 51020 $ =
2018-04-19 21:53 METAR KIAG 200153Z 32011KT 10SM OVC055 03/M06 A3017 RMK AO2 SLP230 T00281056 $ =
2018-04-19 20:53 METAR KIAG 200053Z 31013G18KT 10SM OVC060 03/M06 A3015 RMK AO2 SLP222 T00281056
                 $ =
2018-04-19 19:53 METAR KIAG 192353Z 33012KT 10SM FEW050 BKN060 OVC085 03/M06 A3012 RMK AO2 SLP212
                 60000 T00281056 10056 20028 53027 $ =
2018-04-19 18:00 METAR KIAG 192200Z 32011G22KT 10SM BKN033 OVC048 03/M04 A3006 RMK AO2 T00331044
                 $ =
2018-04-19 17:53 METAR KIAG 192153Z 31018G22KT 10SM BKN029 OVC046 03/M05 A3006 RMK AO2 PK WND
                 31027/2102 SLP191 T00331050 $ =
2018-04-19 16:53 METAR KIAG 192053Z 31017G23KT 10SM BKN029 OVC048 04/M04 A3004 RMK AO2 PK WND
                 31027/2034 SLP184 60000 T00391044 53019 $ =
2018-04-19 15:53 METAR KIAG 191953Z 31017KT BKN029 OVC048 04/M03 A3002 RMK AO2 RAE02 SLP177 P0000
                 T00391033 $ =
2018-04-19 14:53 METAR KIAG 191853Z 31017KT 10SM -RA BKN029 OVC039 04/M03 A3000 RMK AO2 RAB07
                 SLP169 P0000 T00441033 =
2018-04-19 14:40 METAR KIAG 191840Z AUTO 31018G22KT 10SM -RA BKN029 OVC036 04/M03 A3000 RMK AO2
                 RAB07 P0000 T00391033 =
2018-04-19 14:18 METAR KIAG 191818Z 31015G21KT 10SM -RA SCT029 BKN035 OVC049 04/M02 A2999 RMK AO2
                 RAB07 P0000 T00441022 $ =
2018-04-19 13:53 METAR KIAG 191753Z 31018G24KT 10SM BKN027 BKN033 OVC055 04/M03 A2998 RMK AO2
                 RAB1655E1656B03E49 SLP164 P0000 60000 T00391033 10044 20017 51023 $ =
2018-04-19 13:50 METAR KIAG 191750Z 30017G24KT 10SM BKN027 BKN033 OVC050 04/M03 A2998 RMK AO2
                 RAB1655E1656B03E49 P0000 $ =
2018-04-19 13:39 METAR KIAG 191739Z COR 31015KT 10SM -RA BKN027 BKN035 OVC060 04/M03 A2997 RMK
                 AO2 RAB1655E1656B03 P0000 T00391028 $ =
2018-04-19 13:21 METAR KIAG 191721Z 31018KT -RA SCT027 OVC035 04/M03 A2997 RMK AO2
                 RAB1655E1656B03 P0000 T00391028 $ =
2018-04-19 13:14 METAR KIAG 191714Z 31017KT 10SM -RA BKN028 OVC035 03/M03 A2996 RMK AO2
                 RAB1655E1656B03 P0000 T00331033 $ =
2018-04-19 13:01 METAR KIAG 191701Z 32016KT 10SM SCT028 OVC035 04/M03 A2996 RMK AO2 RAB1655E1656
                 P0000 T00391028 $ =
2018-04-19 12:53 METAR KIAG 191653Z 32016KT 10SM BKN028 BKN035 OVC045 04/M03 A2995 RMK AO2
                 RAE1554B26E53 SLP155 P0000 T00391033 $ =
2018-04-19 12:10 METAR KIAG 191610Z 33015KT 10SM OVC032 03/M04 A2994 RMK AO2 RAE1554 P0000
                 T00281044 $ =
2018-04-19 11:53 METAR KIAG 191553Z 31016G22KT 10SM -RA BKN027 OVC035 03/M04 A2994 RMK AO2
                 RAB1457E04B45UPB05E11SNB11E45 SLP150 P0000 T00281044 $ =
2018-04-19 10:53 METAR KIAG 191453Z 33016G24KT 10SM SCT027 OVC035 02/M05 A2991 RMK AO2 SNB34E49
                 SLP141 P0000 60000 T00171050 53028 $ =
2018-04-19 09:53 METAR KIAG 191353Z 35012KT 10SM OVC035 02/M06 A2988 RMK AO2 SLP129 T00171056 $ =
2018-04-19 08:53 METAR KIAG 191253Z 34008KT 10SM OVC030 02/M05 A2986 RMK AO2 SLP122 T00171050 $ =
2018-04-19 07:53 METAR KIAG 191153Z 36011KT 10SM OVC040 02/M05 A2983 RMK AO2 SLP112 T00171050
                 10022 20011 53015 $ =
2018-04-19 06:53 METAR KIAG 191053Z 35012KT 10SM OVC033 02/M05 A2980 RMK AO2 SLP103 T00171050 $ =
2018-04-19 06:50 METAR KIAG 191050Z 35012KT 10SM OVC031 02/M05 A2980 RMK AO2 $ =

Support USWX by starting your Amazon purchase here.